sensor_id;sensor_type;location;lat;lon;timestamp;P1;durP1;ratioP1;P2;durP2;ratioP2
60612;SDS011;46443;59.792;17.626;2024-02-23T00:01:52;50.17;;;17.20;;
60612;SDS011;46443;59.792;17.626;2024-02-23T00:04:18;44.93;;;16.00;;
60612;SDS011;46443;59.792;17.626;2024-02-23T00:06:44;42.00;;;15.30;;
60612;SDS011;46443;59.792;17.626;2024-02-23T00:09:10;39.07;;;14.70;;
60612;SDS011;46443;59.792;17.626;2024-02-23T00:11:40;40.43;;;14.47;;
60612;SDS011;46443;59.792;17.626;2024-02-23T00:14:09;45.80;;;16.23;;
60612;SDS011;46443;59.792;17.626;2024-02-23T00:16:39;46.90;;;15.47;;
60612;SDS011;46443;59.792;17.626;2024-02-23T00:19:06;44.70;;;17.00;;
60612;SDS011;46443;59.792;17.626;2024-02-23T00:21:33;46.67;;;15.37;;
60612;SDS011;46443;59.792;17.626;2024-02-23T00:23:59;39.13;;;15.30;;
60612;SDS011;46443;59.792;17.626;2024-02-23T00:26:25;46.07;;;18.07;;
60612;SDS011;46443;59.792;17.626;2024-02-23T00:28:53;39.00;;;15.13;;
60612;SDS011;46443;59.792;17.626;2024-02-23T00:31:19;37.83;;;15.03;;
60612;SDS011;46443;59.792;17.626;2024-02-23T00:33:45;48.60;;;16.60;;
60612;SDS011;46443;59.792;17.626;2024-02-23T00:36:12;39.97;;;14.60;;
60612;SDS011;46443;59.792;17.626;2024-02-23T00:38:39;37.33;;;13.77;;
60612;SDS011;46443;59.792;17.626;2024-02-23T00:41:05;39.93;;;14.17;;
60612;SDS011;46443;59.792;17.626;2024-02-23T00:43:38;36.13;;;12.80;;
60612;SDS011;46443;59.792;17.626;2024-02-23T00:46:04;43.50;;;15.30;;
60612;SDS011;46443;59.792;17.626;2024-02-23T00:48:30;45.20;;;14.40;;
60612;SDS011;46443;59.792;17.626;2024-02-23T00:50:56;32.40;;;12.37;;
60612;SDS011;46443;59.792;17.626;2024-02-23T00:53:22;34.40;;;12.93;;
60612;SDS011;46443;59.792;17.626;2024-02-23T00:55:49;34.63;;;13.17;;
60612;SDS011;46443;59.792;17.626;2024-02-23T00:58:15;35.60;;;12.90;;
60612;SDS011;46443;59.792;17.626;2024-02-23T01:00:41;45.77;;;15.63;;
60612;SDS011;46443;59.792;17.626;2024-02-23T01:03:07;35.87;;;12.57;;
60612;SDS011;46443;59.792;17.626;2024-02-23T01:05:33;32.30;;;13.47;;
60612;SDS011;46443;59.792;17.626;2024-02-23T01:07:59;39.40;;;14.23;;
60612;SDS011;46443;59.792;17.626;2024-02-23T01:10:25;34.27;;;13.37;;
60612;SDS011;46443;59.792;17.626;2024-02-23T01:12:52;31.37;;;12.80;;
60612;SDS011;46443;59.792;17.626;2024-02-23T01:15:18;28.27;;;11.87;;
60612;SDS011;46443;59.792;17.626;2024-02-23T01:17:47;27.27;;;11.50;;
60612;SDS011;46443;59.792;17.626;2024-02-23T01:20:13;32.10;;;12.43;;
60612;SDS011;46443;59.792;17.626;2024-02-23T01:22:39;32.40;;;12.80;;
60612;SDS011;46443;59.792;17.626;2024-02-23T01:25:06;30.93;;;11.17;;
60612;SDS011;46443;59.792;17.626;2024-02-23T01:27:32;30.23;;;12.20;;
60612;SDS011;46443;59.792;17.626;2024-02-23T01:29:58;33.47;;;14.27;;
60612;SDS011;46443;59.792;17.626;2024-02-23T01:32:24;23.47;;;11.20;;
60612;SDS011;46443;59.792;17.626;2024-02-23T01:34:51;23.63;;;10.07;;
60612;SDS011;46443;59.792;17.626;2024-02-23T01:37:18;27.20;;;10.57;;
60612;SDS011;46443;59.792;17.626;2024-02-23T01:39:44;21.80;;;9.43;;
60612;SDS011;46443;59.792;17.626;2024-02-23T01:42:10;21.57;;;9.53;;
60612;SDS011;46443;59.792;17.626;2024-02-23T01:44:36;21.23;;;10.13;;
60612;SDS011;46443;59.792;17.626;2024-02-23T01:47:02;19.80;;;9.77;;
60612;SDS011;46443;59.792;17.626;2024-02-23T01:49:28;20.10;;;9.23;;
60612;SDS011;46443;59.792;17.626;2024-02-23T01:52:00;21.40;;;8.90;;
60612;SDS011;46443;59.792;17.626;2024-02-23T01:54:26;17.35;;;7.65;;
60612;SDS011;46443;59.792;17.626;2024-02-23T01:56:53;19.67;;;9.47;;
60612;SDS011;46443;59.792;17.626;2024-02-23T01:59:20;16.87;;;7.87;;
60612;SDS011;46443;59.792;17.626;2024-02-23T02:01:46;22.03;;;8.50;;
60612;SDS011;46443;59.792;17.626;2024-02-23T02:04:12;18.03;;;8.30;;
60612;SDS011;46443;59.792;17.626;2024-02-23T02:06:38;20.13;;;9.10;;
60612;SDS011;46443;59.792;17.626;2024-02-23T02:09:05;20.67;;;9.30;;
60612;SDS011;46443;59.792;17.626;2024-02-23T02:11:31;18.27;;;8.40;;
60612;SDS011;46443;59.792;17.626;2024-02-23T02:13:57;17.67;;;8.27;;
60612;SDS011;46443;59.792;17.626;2024-02-23T02:16:23;16.00;;;7.73;;
60612;SDS011;46443;59.792;17.626;2024-02-23T02:18:49;19.97;;;9.30;;
60612;SDS011;46443;59.792;17.626;2024-02-23T02:21:15;15.07;;;8.30;;
60612;SDS011;46443;59.792;17.626;2024-02-23T02:23:41;17.07;;;8.23;;
60612;SDS011;46443;59.792;17.626;2024-02-23T02:26:07;17.33;;;8.20;;
60612;SDS011;46443;59.792;17.626;2024-02-23T02:28:33;17.90;;;8.40;;
60612;SDS011;46443;59.792;17.626;2024-02-23T02:30:59;16.97;;;8.23;;
60612;SDS011;46443;59.792;17.626;2024-02-23T02:33:26;19.03;;;8.80;;
60612;SDS011;46443;59.792;17.626;2024-02-23T02:35:52;20.00;;;9.00;;
60612;SDS011;46443;59.792;17.626;2024-02-23T02:38:18;18.73;;;8.07;;
60612;SDS011;46443;59.792;17.626;2024-02-23T02:40:44;18.10;;;7.70;;
60612;SDS011;46443;59.792;17.626;2024-02-23T02:43:10;17.00;;;8.60;;
60612;SDS011;46443;59.792;17.626;2024-02-23T02:45:36;20.00;;;8.87;;
60612;SDS011;46443;59.792;17.626;2024-02-23T02:48:02;19.40;;;8.50;;
60612;SDS011;46443;59.792;17.626;2024-02-23T02:50:29;19.07;;;8.50;;
60612;SDS011;46443;59.792;17.626;2024-02-23T02:52:56;21.63;;;9.43;;
60612;SDS011;46443;59.792;17.626;2024-02-23T02:55:23;20.83;;;10.10;;
60612;SDS011;46443;59.792;17.626;2024-02-23T02:57:49;19.60;;;9.37;;
60612;SDS011;46443;59.792;17.626;2024-02-23T03:00:15;19.30;;;9.53;;
60612;SDS011;46443;59.792;17.626;2024-02-23T03:02:41;23.87;;;9.87;;
60612;SDS011;46443;59.792;17.626;2024-02-23T03:05:07;20.93;;;9.93;;
60612;SDS011;46443;59.792;17.626;2024-02-23T03:07:33;21.33;;;9.83;;
60612;SDS011;46443;59.792;17.626;2024-02-23T03:09:59;20.37;;;8.73;;
60612;SDS011;46443;59.792;17.626;2024-02-23T03:12:25;21.63;;;9.77;;
60612;SDS011;46443;59.792;17.626;2024-02-23T03:14:51;21.27;;;8.90;;
60612;SDS011;46443;59.792;17.626;2024-02-23T03:17:17;25.30;;;11.33;;
60612;SDS011;46443;59.792;17.626;2024-02-23T03:19:44;25.40;;;12.00;;
60612;SDS011;46443;59.792;17.626;2024-02-23T03:22:10;22.87;;;10.77;;
60612;SDS011;46443;59.792;17.626;2024-02-23T03:24:36;21.80;;;10.37;;
60612;SDS011;46443;59.792;17.626;2024-02-23T03:27:02;27.00;;;10.60;;
60612;SDS011;46443;59.792;17.626;2024-02-23T03:29:30;26.27;;;10.57;;
60612;SDS011;46443;59.792;17.626;2024-02-23T03:31:57;22.63;;;10.23;;
60612;SDS011;46443;59.792;17.626;2024-02-23T03:34:23;24.53;;;12.47;;
60612;SDS011;46443;59.792;17.626;2024-02-23T03:36:49;23.97;;;11.27;;
60612;SDS011;46443;59.792;17.626;2024-02-23T03:39:15;25.03;;;10.83;;
60612;SDS011;46443;59.792;17.626;2024-02-23T03:41:41;22.87;;;9.37;;
60612;SDS011;46443;59.792;17.626;2024-02-23T03:44:07;20.50;;;9.93;;
60612;SDS011;46443;59.792;17.626;2024-02-23T03:46:33;21.17;;;10.10;;
60612;SDS011;46443;59.792;17.626;2024-02-23T03:48:59;21.63;;;10.47;;
60612;SDS011;46443;59.792;17.626;2024-02-23T03:51:26;24.13;;;10.90;;
60612;SDS011;46443;59.792;17.626;2024-02-23T03:53:52;27.73;;;12.23;;
60612;SDS011;46443;59.792;17.626;2024-02-23T03:56:18;24.27;;;11.07;;
60612;SDS011;46443;59.792;17.626;2024-02-23T03:58:44;26.10;;;11.67;;
60612;SDS011;46443;59.792;17.626;2024-02-23T04:01:11;21.10;;;10.30;;
60612;SDS011;46443;59.792;17.626;2024-02-23T04:03:37;28.70;;;12.90;;
60612;SDS011;46443;59.792;17.626;2024-02-23T04:06:03;26.83;;;11.13;;
60612;SDS011;46443;59.792;17.626;2024-02-23T04:08:29;25.87;;;11.17;;
60612;SDS011;46443;59.792;17.626;2024-02-23T04:10:56;24.37;;;10.40;;
60612;SDS011;46443;59.792;17.626;2024-02-23T04:13:22;24.03;;;11.07;;
60612;SDS011;46443;59.792;17.626;2024-02-23T04:15:49;19.23;;;9.00;;
60612;SDS011;46443;59.792;17.626;2024-02-23T04:18:15;21.93;;;9.97;;
60612;SDS011;46443;59.792;17.626;2024-02-23T04:20:41;21.43;;;10.93;;
60612;SDS011;46443;59.792;17.626;2024-02-23T04:23:07;22.10;;;11.63;;
60612;SDS011;46443;59.792;17.626;2024-02-23T04:25:33;19.47;;;10.03;;
60612;SDS011;46443;59.792;17.626;2024-02-23T04:27:59;20.73;;;9.07;;
60612;SDS011;46443;59.792;17.626;2024-02-23T04:30:25;18.43;;;8.90;;
60612;SDS011;46443;59.792;17.626;2024-02-23T04:32:51;21.20;;;9.20;;
60612;SDS011;46443;59.792;17.626;2024-02-23T04:35:17;18.93;;;9.33;;
60612;SDS011;46443;59.792;17.626;2024-02-23T04:37:44;19.00;;;9.17;;
60612;SDS011;46443;59.792;17.626;2024-02-23T04:40:10;20.90;;;10.00;;
60612;SDS011;46443;59.792;17.626;2024-02-23T04:42:37;18.80;;;9.47;;
60612;SDS011;46443;59.792;17.626;2024-02-23T04:45:04;19.13;;;10.47;;
60612;SDS011;46443;59.792;17.626;2024-02-23T04:47:30;16.47;;;8.07;;
60612;SDS011;46443;59.792;17.626;2024-02-23T04:49:56;19.67;;;10.03;;
60612;SDS011;46443;59.792;17.626;2024-02-23T04:52:22;20.03;;;10.20;;
60612;SDS011;46443;59.792;17.626;2024-02-23T04:54:48;19.97;;;9.50;;
60612;SDS011;46443;59.792;17.626;2024-02-23T04:57:14;22.07;;;10.70;;
60612;SDS011;46443;59.792;17.626;2024-02-23T04:59:40;20.87;;;9.83;;
60612;SDS011;46443;59.792;17.626;2024-02-23T05:02:06;18.33;;;9.10;;
60612;SDS011;46443;59.792;17.626;2024-02-23T05:04:32;19.63;;;10.23;;
60612;SDS011;46443;59.792;17.626;2024-02-23T05:07:00;19.17;;;8.83;;
60612;SDS011;46443;59.792;17.626;2024-02-23T05:09:26;18.63;;;9.60;;
60612;SDS011;46443;59.792;17.626;2024-02-23T05:11:52;20.00;;;9.03;;
60612;SDS011;46443;59.792;17.626;2024-02-23T05:14:18;17.10;;;10.20;;
60612;SDS011;46443;59.792;17.626;2024-02-23T05:16:44;19.83;;;9.17;;
60612;SDS011;46443;59.792;17.626;2024-02-23T05:19:12;20.37;;;9.33;;
60612;SDS011;46443;59.792;17.626;2024-02-23T05:21:38;23.10;;;10.27;;
60612;SDS011;46443;59.792;17.626;2024-02-23T05:24:04;21.67;;;10.10;;
60612;SDS011;46443;59.792;17.626;2024-02-23T05:26:31;19.87;;;10.03;;
60612;SDS011;46443;59.792;17.626;2024-02-23T05:28:57;22.77;;;10.83;;
60612;SDS011;46443;59.792;17.626;2024-02-23T05:31:43;20.50;;;10.17;;
60612;SDS011;46443;59.792;17.626;2024-02-23T05:34:10;21.43;;;10.00;;
60612;SDS011;46443;59.792;17.626;2024-02-23T05:36:36;19.57;;;8.90;;
60612;SDS011;46443;59.792;17.626;2024-02-23T05:39:02;17.27;;;8.67;;
60612;SDS011;46443;59.792;17.626;2024-02-23T05:41:28;17.50;;;8.70;;
60612;SDS011;46443;59.792;17.626;2024-02-23T05:43:54;14.50;;;7.40;;
60612;SDS011;46443;59.792;17.626;2024-02-23T05:46:20;14.87;;;8.70;;
60612;SDS011;46443;59.792;17.626;2024-02-23T05:48:46;13.03;;;7.37;;
60612;SDS011;46443;59.792;17.626;2024-02-23T05:51:12;13.00;;;7.63;;
60612;SDS011;46443;59.792;17.626;2024-02-23T05:53:40;13.47;;;6.77;;
60612;SDS011;46443;59.792;17.626;2024-02-23T05:56:06;13.63;;;7.23;;
60612;SDS011;46443;59.792;17.626;2024-02-23T05:58:32;11.67;;;6.80;;
60612;SDS011;46443;59.792;17.626;2024-02-23T06:00:59;14.53;;;7.30;;
60612;SDS011;46443;59.792;17.626;2024-02-23T06:03:25;13.27;;;7.17;;
60612;SDS011;46443;59.792;17.626;2024-02-23T06:05:51;10.77;;;6.40;;
60612;SDS011;46443;59.792;17.626;2024-02-23T06:08:19;10.90;;;5.80;;
60612;SDS011;46443;59.792;17.626;2024-02-23T06:10:45;12.03;;;5.93;;
60612;SDS011;46443;59.792;17.626;2024-02-23T06:13:11;10.97;;;5.73;;
60612;SDS011;46443;59.792;17.626;2024-02-23T06:15:37;12.07;;;7.47;;
60612;SDS011;46443;59.792;17.626;2024-02-23T06:18:03;8.97;;;5.50;;
60612;SDS011;46443;59.792;17.626;2024-02-23T06:20:29;13.27;;;6.70;;
60612;SDS011;46443;59.792;17.626;2024-02-23T06:22:57;10.57;;;6.07;;
60612;SDS011;46443;59.792;17.626;2024-02-23T06:25:23;13.37;;;7.53;;
60612;SDS011;46443;59.792;17.626;2024-02-23T06:27:49;12.30;;;6.53;;
60612;SDS011;46443;59.792;17.626;2024-02-23T06:30:15;14.03;;;7.63;;
60612;SDS011;46443;59.792;17.626;2024-02-23T06:32:41;14.63;;;6.90;;
60612;SDS011;46443;59.792;17.626;2024-02-23T06:35:07;17.03;;;9.40;;
60612;SDS011;46443;59.792;17.626;2024-02-23T06:37:35;13.37;;;7.17;;
60612;SDS011;46443;59.792;17.626;2024-02-23T06:40:02;15.30;;;8.70;;
60612;SDS011;46443;59.792;17.626;2024-02-23T06:42:32;16.40;;;7.68;;
60612;SDS011;46443;59.792;17.626;2024-02-23T06:44:58;16.73;;;8.93;;
60612;SDS011;46443;59.792;17.626;2024-02-23T06:47:24;14.37;;;6.60;;
60612;SDS011;46443;59.792;17.626;2024-02-23T06:49:50;12.53;;;6.53;;
60612;SDS011;46443;59.792;17.626;2024-02-23T06:52:16;12.30;;;6.50;;
60612;SDS011;46443;59.792;17.626;2024-02-23T06:54:43;13.67;;;7.80;;
60612;SDS011;46443;59.792;17.626;2024-02-23T06:57:10;13.87;;;6.73;;
60612;SDS011;46443;59.792;17.626;2024-02-23T06:59:36;12.17;;;6.60;;
60612;SDS011;46443;59.792;17.626;2024-02-23T07:02:02;11.97;;;7.40;;
60612;SDS011;46443;59.792;17.626;2024-02-23T07:04:29;10.37;;;6.40;;
60612;SDS011;46443;59.792;17.626;2024-02-23T07:06:55;14.37;;;6.73;;
60612;SDS011;46443;59.792;17.626;2024-02-23T07:09:21;12.43;;;7.00;;
60612;SDS011;46443;59.792;17.626;2024-02-23T07:11:47;13.20;;;6.83;;
60612;SDS011;46443;59.792;17.626;2024-02-23T07:14:13;12.37;;;6.47;;
60612;SDS011;46443;59.792;17.626;2024-02-23T07:16:41;11.63;;;5.77;;
60612;SDS011;46443;59.792;17.626;2024-02-23T07:19:08;11.77;;;6.90;;
60612;SDS011;46443;59.792;17.626;2024-02-23T07:21:34;12.07;;;6.83;;
60612;SDS011;46443;59.792;17.626;2024-02-23T07:24:01;12.17;;;7.53;;
60612;SDS011;46443;59.792;17.626;2024-02-23T07:26:27;13.27;;;7.77;;
60612;SDS011;46443;59.792;17.626;2024-02-23T07:28:56;9.77;;;5.93;;
60612;SDS011;46443;59.792;17.626;2024-02-23T07:31:22;11.87;;;6.20;;
60612;SDS011;46443;59.792;17.626;2024-02-23T07:33:48;12.13;;;6.80;;
60612;SDS011;46443;59.792;17.626;2024-02-23T07:36:14;10.57;;;6.20;;
60612;SDS011;46443;59.792;17.626;2024-02-23T07:38:41;13.47;;;6.77;;
60612;SDS011;46443;59.792;17.626;2024-02-23T07:41:09;12.97;;;7.67;;
60612;SDS011;46443;59.792;17.626;2024-02-23T07:43:35;12.43;;;6.77;;
60612;SDS011;46443;59.792;17.626;2024-02-23T07:46:01;11.87;;;7.00;;
60612;SDS011;46443;59.792;17.626;2024-02-23T07:48:27;13.70;;;7.63;;
60612;SDS011;46443;59.792;17.626;2024-02-23T07:50:53;12.53;;;6.63;;
60612;SDS011;46443;59.792;17.626;2024-02-23T07:53:19;11.80;;;6.97;;
60612;SDS011;46443;59.792;17.626;2024-02-23T07:55:46;12.90;;;6.63;;
60612;SDS011;46443;59.792;17.626;2024-02-23T07:58:12;11.77;;;6.70;;
60612;SDS011;46443;59.792;17.626;2024-02-23T08:00:38;12.40;;;8.30;;
60612;SDS011;46443;59.792;17.626;2024-02-23T08:03:04;13.43;;;7.93;;
60612;SDS011;46443;59.792;17.626;2024-02-23T08:05:31;14.97;;;8.40;;
60612;SDS011;46443;59.792;17.626;2024-02-23T08:07:57;15.27;;;8.60;;
60612;SDS011;46443;59.792;17.626;2024-02-23T08:10:24;12.83;;;7.07;;
60612;SDS011;46443;59.792;17.626;2024-02-23T08:12:50;12.93;;;7.47;;
60612;SDS011;46443;59.792;17.626;2024-02-23T08:15:16;14.23;;;9.10;;
60612;SDS011;46443;59.792;17.626;2024-02-23T08:17:43;15.23;;;8.83;;
60612;SDS011;46443;59.792;17.626;2024-02-23T08:20:09;14.13;;;7.97;;
60612;SDS011;46443;59.792;17.626;2024-02-23T08:22:35;18.10;;;9.90;;
60612;SDS011;46443;59.792;17.626;2024-02-23T08:25:01;13.33;;;8.43;;
60612;SDS011;46443;59.792;17.626;2024-02-23T08:27:28;15.57;;;9.07;;
60612;SDS011;46443;59.792;17.626;2024-02-23T08:29:54;15.63;;;9.33;;
60612;SDS011;46443;59.792;17.626;2024-02-23T08:32:20;20.07;;;10.80;;
60612;SDS011;46443;59.792;17.626;2024-02-23T08:34:46;20.77;;;9.63;;
60612;SDS011;46443;59.792;17.626;2024-02-23T08:37:12;18.07;;;10.63;;
60612;SDS011;46443;59.792;17.626;2024-02-23T08:39:38;19.00;;;10.23;;
60612;SDS011;46443;59.792;17.626;2024-02-23T08:42:04;18.50;;;10.30;;
60612;SDS011;46443;59.792;17.626;2024-02-23T08:44:30;18.23;;;10.20;;
60612;SDS011;46443;59.792;17.626;2024-02-23T08:46:56;19.53;;;10.30;;
60612;SDS011;46443;59.792;17.626;2024-02-23T08:49:22;19.60;;;12.20;;
60612;SDS011;46443;59.792;17.626;2024-02-23T08:51:49;16.67;;;9.47;;
60612;SDS011;46443;59.792;17.626;2024-02-23T08:54:15;19.47;;;11.00;;
60612;SDS011;46443;59.792;17.626;2024-02-23T08:56:41;16.97;;;9.13;;
60612;SDS011;46443;59.792;17.626;2024-02-23T08:59:08;18.47;;;9.27;;
60612;SDS011;46443;59.792;17.626;2024-02-23T09:01:35;16.30;;;9.60;;
60612;SDS011;46443;59.792;17.626;2024-02-23T09:04:01;14.57;;;8.70;;
60612;SDS011;46443;59.792;17.626;2024-02-23T09:06:27;15.23;;;8.77;;
60612;SDS011;46443;59.792;17.626;2024-02-23T09:08:53;16.17;;;9.10;;
60612;SDS011;46443;59.792;17.626;2024-02-23T09:11:19;16.10;;;8.53;;
60612;SDS011;46443;59.792;17.626;2024-02-23T09:13:46;17.23;;;10.67;;
60612;SDS011;46443;59.792;17.626;2024-02-23T09:16:12;13.60;;;9.63;;
60612;SDS011;46443;59.792;17.626;2024-02-23T09:18:39;20.77;;;10.67;;
60612;SDS011;46443;59.792;17.626;2024-02-23T09:21:05;16.23;;;10.00;;
60612;SDS011;46443;59.792;17.626;2024-02-23T09:23:32;20.10;;;9.77;;
60612;SDS011;46443;59.792;17.626;2024-02-23T09:25:58;20.97;;;10.13;;
60612;SDS011;46443;59.792;17.626;2024-02-23T09:28:24;18.77;;;9.80;;
60612;SDS011;46443;59.792;17.626;2024-02-23T09:30:51;18.57;;;9.90;;
60612;SDS011;46443;59.792;17.626;2024-02-23T09:33:17;16.93;;;9.03;;
60612;SDS011;46443;59.792;17.626;2024-02-23T09:35:44;16.40;;;9.37;;
60612;SDS011;46443;59.792;17.626;2024-02-23T09:38:10;15.67;;;9.47;;
60612;SDS011;46443;59.792;17.626;2024-02-23T09:40:36;15.60;;;9.13;;
60612;SDS011;46443;59.792;17.626;2024-02-23T09:43:02;18.67;;;10.17;;
60612;SDS011;46443;59.792;17.626;2024-02-23T09:45:29;16.37;;;9.67;;
60612;SDS011;46443;59.792;17.626;2024-02-23T09:47:56;16.90;;;11.70;;
60612;SDS011;46443;59.792;17.626;2024-02-23T09:50:22;13.47;;;8.30;;
60612;SDS011;46443;59.792;17.626;2024-02-23T09:52:49;13.67;;;8.63;;
60612;SDS011;46443;59.792;17.626;2024-02-23T09:55:16;13.50;;;8.30;;
60612;SDS011;46443;59.792;17.626;2024-02-23T09:57:44;11.33;;;6.70;;
60612;SDS011;46443;59.792;17.626;2024-02-23T10:00:11;13.43;;;7.77;;
60612;SDS011;46443;59.792;17.626;2024-02-23T10:02:37;13.53;;;7.90;;
60612;SDS011;46443;59.792;17.626;2024-02-23T10:05:06;14.93;;;9.63;;
60612;SDS011;46443;59.792;17.626;2024-02-23T10:07:32;14.77;;;9.50;;
60612;SDS011;46443;59.792;17.626;2024-02-23T10:09:58;13.70;;;8.83;;
60612;SDS011;46443;59.792;17.626;2024-02-23T10:12:26;15.43;;;10.23;;
60612;SDS011;46443;59.792;17.626;2024-02-23T10:14:53;17.37;;;8.67;;
60612;SDS011;46443;59.792;17.626;2024-02-23T10:17:19;14.83;;;9.63;;
60612;SDS011;46443;59.792;17.626;2024-02-23T10:19:46;12.17;;;8.27;;
60612;SDS011;46443;59.792;17.626;2024-02-23T10:22:12;13.73;;;8.17;;
60612;SDS011;46443;59.792;17.626;2024-02-23T10:24:38;11.30;;;7.37;;
60612;SDS011;46443;59.792;17.626;2024-02-23T10:27:04;10.67;;;6.30;;
60612;SDS011;46443;59.792;17.626;2024-02-23T10:29:31;11.30;;;6.33;;
60612;SDS011;46443;59.792;17.626;2024-02-23T10:31:57;8.60;;;6.03;;
60612;SDS011;46443;59.792;17.626;2024-02-23T10:34:23;11.50;;;6.43;;
60612;SDS011;46443;59.792;17.626;2024-02-23T10:36:50;12.23;;;7.90;;
60612;SDS011;46443;59.792;17.626;2024-02-23T10:39:17;10.97;;;5.90;;
60612;SDS011;46443;59.792;17.626;2024-02-23T10:44:12;10.17;;;5.30;;
60612;SDS011;46443;59.792;17.626;2024-02-23T10:46:38;8.83;;;5.07;;
60612;SDS011;46443;59.792;17.626;2024-02-23T10:49:06;6.97;;;4.83;;
60612;SDS011;46443;59.792;17.626;2024-02-23T10:51:32;7.77;;;5.10;;
60612;SDS011;46443;59.792;17.626;2024-02-23T10:53:59;6.13;;;4.20;;
60612;SDS011;46443;59.792;17.626;2024-02-23T10:56:25;8.07;;;4.23;;
60612;SDS011;46443;59.792;17.626;2024-02-23T10:58:53;6.63;;;3.60;;
60612;SDS011;46443;59.792;17.626;2024-02-23T11:01:20;5.90;;;3.60;;
60612;SDS011;46443;59.792;17.626;2024-02-23T11:03:48;5.07;;;3.20;;
60612;SDS011;46443;59.792;17.626;2024-02-23T11:06:16;7.33;;;3.90;;
60612;SDS011;46443;59.792;17.626;2024-02-23T11:08:46;6.17;;;3.30;;
60612;SDS011;46443;59.792;17.626;2024-02-23T11:11:15;4.53;;;2.97;;
60612;SDS011;46443;59.792;17.626;2024-02-23T11:13:44;5.13;;;3.17;;
60612;SDS011;46443;59.792;17.626;2024-02-23T11:16:20;4.93;;;2.97;;
60612;SDS011;46443;59.792;17.626;2024-02-23T11:18:47;6.23;;;3.27;;
60612;SDS011;46443;59.792;17.626;2024-02-23T11:21:13;5.97;;;2.90;;
60612;SDS011;46443;59.792;17.626;2024-02-23T11:23:42;4.73;;;2.90;;
60612;SDS011;46443;59.792;17.626;2024-02-23T11:26:09;7.15;;;3.22;;
60612;SDS011;46443;59.792;17.626;2024-02-23T11:28:43;6.20;;;3.27;;
60612;SDS011;46443;59.792;17.626;2024-02-23T11:31:15;5.77;;;3.23;;
60612;SDS011;46443;59.792;17.626;2024-02-23T11:33:49;6.27;;;2.70;;
60612;SDS011;46443;59.792;17.626;2024-02-23T11:36:29;6.50;;;3.43;;
60612;SDS011;46443;59.792;17.626;2024-02-23T11:41:21;6.17;;;3.37;;
60612;SDS011;46443;59.792;17.626;2024-02-23T11:43:51;6.80;;;3.00;;
60612;SDS011;46443;59.792;17.626;2024-02-23T11:46:17;4.00;;;2.63;;
60612;SDS011;46443;59.792;17.626;2024-02-23T11:48:44;6.40;;;2.67;;
60612;SDS011;46443;59.792;17.626;2024-02-23T11:51:12;5.43;;;2.60;;
60612;SDS011;46443;59.792;17.626;2024-02-23T11:53:38;5.87;;;3.30;;
60612;SDS011;46443;59.792;17.626;2024-02-23T11:56:05;5.10;;;2.57;;
60612;SDS011;46443;59.792;17.626;2024-02-23T11:58:34;4.80;;;2.53;;
60612;SDS011;46443;59.792;17.626;2024-02-23T12:01:00;3.28;;;1.90;;
60612;SDS011;46443;59.792;17.626;2024-02-23T12:03:30;5.67;;;2.67;;
60612;SDS011;46443;59.792;17.626;2024-02-23T12:05:57;3.40;;;2.20;;
60612;SDS011;46443;59.792;17.626;2024-02-23T12:08:26;4.47;;;2.30;;
60612;SDS011;46443;59.792;17.626;2024-02-23T12:10:56;4.03;;;2.33;;
60612;SDS011;46443;59.792;17.626;2024-02-23T12:13:25;5.33;;;2.27;;
60612;SDS011;46443;59.792;17.626;2024-02-23T12:15:54;4.65;;;2.25;;
60612;SDS011;46443;59.792;17.626;2024-02-23T12:18:24;3.87;;;1.90;;
60612;SDS011;46443;59.792;17.626;2024-02-23T12:20:58;2.90;;;1.70;;
60612;SDS011;46443;59.792;17.626;2024-02-23T12:23:25;2.90;;;1.67;;
60612;SDS011;46443;59.792;17.626;2024-02-23T12:25:57;5.33;;;2.20;;
60612;SDS011;46443;59.792;17.626;2024-02-23T12:28:24;2.80;;;1.70;;
60612;SDS011;46443;59.792;17.626;2024-02-23T12:31:03;2.70;;;1.70;;
60612;SDS011;46443;59.792;17.626;2024-02-23T12:33:33;3.30;;;1.80;;
60612;SDS011;46443;59.792;17.626;2024-02-23T12:38:26;4.37;;;1.60;;
60612;SDS011;46443;59.792;17.626;2024-02-23T12:40:52;3.43;;;1.63;;
60612;SDS011;46443;59.792;17.626;2024-02-23T12:43:18;1.67;;;1.40;;
60612;SDS011;46443;59.792;17.626;2024-02-23T12:45:49;3.90;;;1.27;;
60612;SDS011;46443;59.792;17.626;2024-02-23T12:48:16;2.77;;;1.40;;
60612;SDS011;46443;59.792;17.626;2024-02-23T12:50:42;3.37;;;1.33;;
60612;SDS011;46443;59.792;17.626;2024-02-23T12:53:10;1.77;;;1.30;;
60612;SDS011;46443;59.792;17.626;2024-02-23T12:55:37;4.50;;;1.47;;
60612;SDS011;46443;59.792;17.626;2024-02-23T12:58:04;2.40;;;1.20;;
60612;SDS011;46443;59.792;17.626;2024-02-23T13:00:30;2.47;;;1.20;;
60612;SDS011;46443;59.792;17.626;2024-02-23T13:02:56;2.30;;;1.20;;
60612;SDS011;46443;59.792;17.626;2024-02-23T13:05:22;2.47;;;1.30;;
60612;SDS011;46443;59.792;17.626;2024-02-23T13:07:48;1.60;;;1.10;;
60612;SDS011;46443;59.792;17.626;2024-02-23T13:10:14;3.07;;;1.20;;
60612;SDS011;46443;59.792;17.626;2024-02-23T13:12:43;3.83;;;1.20;;
60612;SDS011;46443;59.792;17.626;2024-02-23T13:15:09;1.87;;;1.10;;
60612;SDS011;46443;59.792;17.626;2024-02-23T13:17:35;2.13;;;1.37;;
60612;SDS011;46443;59.792;17.626;2024-02-23T13:20:01;2.43;;;1.07;;
60612;SDS011;46443;59.792;17.626;2024-02-23T13:22:27;3.40;;;1.20;;
60612;SDS011;46443;59.792;17.626;2024-02-23T13:24:54;4.27;;;1.43;;
60612;SDS011;46443;59.792;17.626;2024-02-23T13:27:20;4.77;;;1.33;;
60612;SDS011;46443;59.792;17.626;2024-02-23T13:29:46;6.23;;;1.57;;
60612;SDS011;46443;59.792;17.626;2024-02-23T13:32:12;3.27;;;1.30;;
60612;SDS011;46443;59.792;17.626;2024-02-23T13:34:38;4.77;;;1.33;;
60612;SDS011;46443;59.792;17.626;2024-02-23T13:37:04;4.37;;;1.30;;
60612;SDS011;46443;59.792;17.626;2024-02-23T13:39:30;3.10;;;1.40;;
60612;SDS011;46443;59.792;17.626;2024-02-23T13:41:57;4.97;;;1.50;;
60612;SDS011;46443;59.792;17.626;2024-02-23T13:44:23;2.50;;;1.30;;
60612;SDS011;46443;59.792;17.626;2024-02-23T13:46:49;3.47;;;1.43;;
60612;SDS011;46443;59.792;17.626;2024-02-23T13:49:15;3.43;;;1.40;;
60612;SDS011;46443;59.792;17.626;2024-02-23T13:51:41;2.57;;;1.00;;
60612;SDS011;46443;59.792;17.626;2024-02-23T13:54:07;4.47;;;1.80;;
60612;SDS011;46443;59.792;17.626;2024-02-23T13:56:33;4.13;;;1.30;;
60612;SDS011;46443;59.792;17.626;2024-02-23T13:58:59;2.80;;;1.13;;
60612;SDS011;46443;59.792;17.626;2024-02-23T14:01:26;4.63;;;1.53;;
60612;SDS011;46443;59.792;17.626;2024-02-23T14:03:52;3.77;;;1.33;;
60612;SDS011;46443;59.792;17.626;2024-02-23T14:06:18;2.57;;;1.30;;
60612;SDS011;46443;59.792;17.626;2024-02-23T14:08:45;3.07;;;1.20;;
60612;SDS011;46443;59.792;17.626;2024-02-23T14:11:12;4.20;;;1.40;;
60612;SDS011;46443;59.792;17.626;2024-02-23T14:13:39;3.67;;;1.80;;
60612;SDS011;46443;59.792;17.626;2024-02-23T14:16:05;4.63;;;1.23;;
60612;SDS011;46443;59.792;17.626;2024-02-23T14:18:31;2.57;;;1.30;;
60612;SDS011;46443;59.792;17.626;2024-02-23T14:21:02;3.37;;;1.30;;
60612;SDS011;46443;59.792;17.626;2024-02-23T14:23:28;6.27;;;1.77;;
60612;SDS011;46443;59.792;17.626;2024-02-23T14:25:54;5.03;;;1.57;;